sensor_id;sensor_type;location;lat;lon;timestamp;temperature;humidity
30037;DHT22;36325;51.512;-0.382;2023-08-24T00:02:10;20.60;99.90
30037;DHT22;36325;51.512;-0.382;2023-08-24T00:04:38;20.60;99.90
30037;DHT22;36325;51.512;-0.382;2023-08-24T00:07:05;20.60;99.90
30037;DHT22;36325;51.512;-0.382;2023-08-24T00:09:33;20.60;99.90
30037;DHT22;36325;51.512;-0.382;2023-08-24T00:12:00;20.60;99.90
30037;DHT22;36325;51.512;-0.382;2023-08-24T00:14:28;20.60;99.90
30037;DHT22;36325;51.512;-0.382;2023-08-24T00:16:57;20.60;99.90
30037;DHT22;36325;51.512;-0.382;2023-08-24T00:19:24;20.60;99.90
30037;DHT22;36325;51.512;-0.382;2023-08-24T00:21:51;20.50;99.90
30037;DHT22;36325;51.512;-0.382;2023-08-24T00:24:19;20.50;99.90
30037;DHT22;36325;51.512;-0.382;2023-08-24T00:26:46;20.50;99.90
30037;DHT22;36325;51.512;-0.382;2023-08-24T00:29:14;20.50;99.90
30037;DHT22;36325;51.512;-0.382;2023-08-24T00:31:41;20.40;99.90
30037;DHT22;36325;51.512;-0.382;2023-08-24T00:34:10;20.30;99.90
30037;DHT22;36325;51.512;-0.382;2023-08-24T00:36:37;20.20;99.90
30037;DHT22;36325;51.512;-0.382;2023-08-24T00:39:05;20.20;99.90
30037;DHT22;36325;51.512;-0.382;2023-08-24T00:41:33;20.10;99.90
30037;DHT22;36325;51.512;-0.382;2023-08-24T00:44:00;20.10;99.90
30037;DHT22;36325;51.512;-0.382;2023-08-24T00:46:30;20.00;99.90
30037;DHT22;36325;51.512;-0.382;2023-08-24T00:48:59;20.00;99.90
30037;DHT22;36325;51.512;-0.382;2023-08-24T00:51:27;20.00;99.90
30037;DHT22;36325;51.512;-0.382;2023-08-24T00:53:55;19.90;99.90
30037;DHT22;36325;51.512;-0.382;2023-08-24T00:56:25;19.90;99.90
30037;DHT22;36325;51.512;-0.382;2023-08-24T00:58:54;19.90;99.90
30037;DHT22;36325;51.512;-0.382;2023-08-24T01:01:22;19.90;99.90
30037;DHT22;36325;51.512;-0.382;2023-08-24T01:03:51;19.90;99.90
30037;DHT22;36325;51.512;-0.382;2023-08-24T01:06:19;19.90;99.90
30037;DHT22;36325;51.512;-0.382;2023-08-24T01:08:47;19.80;99.90
30037;DHT22;36325;51.512;-0.382;2023-08-24T01:16:32;19.80;99.90
30037;DHT22;36325;51.512;-0.382;2023-08-24T01:19:02;19.80;99.90
30037;DHT22;36325;51.512;-0.382;2023-08-24T01:21:33;19.70;99.90
30037;DHT22;36325;51.512;-0.382;2023-08-24T01:24:38;19.80;99.90
30037;DHT22;36325;51.512;-0.382;2023-08-24T01:27:07;19.80;99.90
30037;DHT22;36325;51.512;-0.382;2023-08-24T01:29:36;19.80;99.90
30037;DHT22;36325;51.512;-0.382;2023-08-24T01:32:04;19.80;99.90
30037;DHT22;36325;51.512;-0.382;2023-08-24T01:34:31;19.80;99.90
30037;DHT22;36325;51.512;-0.382;2023-08-24T01:36:59;19.80;99.90
30037;DHT22;36325;51.512;-0.382;2023-08-24T01:39:38;19.90;99.90
30037;DHT22;36325;51.512;-0.382;2023-08-24T01:42:11;19.90;99.90
30037;DHT22;36325;51.512;-0.382;2023-08-24T01:44:50;19.90;99.90
30037;DHT22;36325;51.512;-0.382;2023-08-24T01:47:19;19.90;99.90
30037;DHT22;36325;51.512;-0.382;2023-08-24T01:49:48;19.80;99.90
30037;DHT22;36325;51.512;-0.382;2023-08-24T01:52:17;19.90;99.90
30037;DHT22;36325;51.512;-0.382;2023-08-24T01:54:47;19.80;99.90
30037;DHT22;36325;51.512;-0.382;2023-08-24T01:59:43;19.80;99.90
30037;DHT22;36325;51.512;-0.382;2023-08-24T02:02:10;19.80;99.90
30037;DHT22;36325;51.512;-0.382;2023-08-24T02:04:38;19.70;99.90
30037;DHT22;36325;51.512;-0.382;2023-08-24T02:07:06;19.70;99.90
30037;DHT22;36325;51.512;-0.382;2023-08-24T02:09:35;19.70;99.90
30037;DHT22;36325;51.512;-0.382;2023-08-24T02:12:04;19.60;99.90
30037;DHT22;36325;51.512;-0.382;2023-08-24T02:16:59;19.70;99.90
30037;DHT22;36325;51.512;-0.382;2023-08-24T02:19:30;19.70;99.90
30037;DHT22;36325;51.512;-0.382;2023-08-24T02:21:58;19.70;99.90
30037;DHT22;36325;51.512;-0.382;2023-08-24T02:24:27;19.70;99.90
30037;DHT22;36325;51.512;-0.382;2023-08-24T02:26:56;19.60;99.90
30037;DHT22;36325;51.512;-0.382;2023-08-24T02:29:23;19.60;99.90
30037;DHT22;36325;51.512;-0.382;2023-08-24T02:31:51;19.60;99.90
30037;DHT22;36325;51.512;-0.382;2023-08-24T02:34:20;19.50;99.90
30037;DHT22;36325;51.512;-0.382;2023-08-24T02:36:47;19.50;99.90
30037;DHT22;36325;51.512;-0.382;2023-08-24T02:39:14;19.40;99.90
30037;DHT22;36325;51.512;-0.382;2023-08-24T02:41:42;19.40;99.90
30037;DHT22;36325;51.512;-0.382;2023-08-24T02:44:11;19.40;99.90
30037;DHT22;36325;51.512;-0.382;2023-08-24T02:46:43;19.40;99.90
30037;DHT22;36325;51.512;-0.382;2023-08-24T02:49:13;19.30;99.90
30037;DHT22;36325;51.512;-0.382;2023-08-24T02:51:43;19.20;99.90
30037;DHT22;36325;51.512;-0.382;2023-08-24T02:54:10;19.20;99.90
30037;DHT22;36325;51.512;-0.382;2023-08-24T02:56:38;19.00;99.90
30037;DHT22;36325;51.512;-0.382;2023-08-24T02:59:06;19.00;99.90
30037;DHT22;36325;51.512;-0.382;2023-08-24T03:01:33;18.80;99.90
30037;DHT22;36325;51.512;-0.382;2023-08-24T03:04:01;18.70;99.90
30037;DHT22;36325;51.512;-0.382;2023-08-24T03:06:28;18.70;99.90
30037;DHT22;36325;51.512;-0.382;2023-08-24T03:08:56;18.50;99.90
30037;DHT22;36325;51.512;-0.382;2023-08-24T03:11:24;18.50;99.90
30037;DHT22;36325;51.512;-0.382;2023-08-24T03:13:51;18.50;99.90
30037;DHT22;36325;51.512;-0.382;2023-08-24T03:16:19;18.50;99.90
30037;DHT22;36325;51.512;-0.382;2023-08-24T03:18:47;18.50;99.90
30037;DHT22;36325;51.512;-0.382;2023-08-24T03:21:16;18.50;99.90
30037;DHT22;36325;51.512;-0.382;2023-08-24T03:23:44;18.50;99.90
30037;DHT22;36325;51.512;-0.382;2023-08-24T03:26:11;18.60;99.90
30037;DHT22;36325;51.512;-0.382;2023-08-24T03:28:38;18.60;99.90
30037;DHT22;36325;51.512;-0.382;2023-08-24T03:31:06;18.60;99.90
30037;DHT22;36325;51.512;-0.382;2023-08-24T03:33:34;18.60;99.90
30037;DHT22;36325;51.512;-0.382;2023-08-24T03:36:02;18.70;99.90
30037;DHT22;36325;51.512;-0.382;2023-08-24T03:38:30;18.80;99.90
30037;DHT22;36325;51.512;-0.382;2023-08-24T03:41:02;18.80;99.90
30037;DHT22;36325;51.512;-0.382;2023-08-24T03:43:35;18.80;99.90
30037;DHT22;36325;51.512;-0.382;2023-08-24T03:46:04;18.80;99.90
30037;DHT22;36325;51.512;-0.382;2023-08-24T03:48:33;18.80;99.90
30037;DHT22;36325;51.512;-0.382;2023-08-24T03:51:00;18.80;99.90
30037;DHT22;36325;51.512;-0.382;2023-08-24T03:53:28;18.70;99.90
30037;DHT22;36325;51.512;-0.382;2023-08-24T03:55:55;18.80;99.90
30037;DHT22;36325;51.512;-0.382;2023-08-24T03:58:23;18.80;99.90
30037;DHT22;36325;51.512;-0.382;2023-08-24T04:00:52;18.80;99.90
30037;DHT22;36325;51.512;-0.382;2023-08-24T04:03:21;18.80;99.90
30037;DHT22;36325;51.512;-0.382;2023-08-24T04:05:49;18.80;99.90
30037;DHT22;36325;51.512;-0.382;2023-08-24T04:08:16;18.80;99.90
30037;DHT22;36325;51.512;-0.382;2023-08-24T04:10:45;18.80;99.90
30037;DHT22;36325;51.512;-0.382;2023-08-24T04:13:13;18.80;99.90
30037;DHT22;36325;51.512;-0.382;2023-08-24T04:15:42;18.80;99.90
30037;DHT22;36325;51.512;-0.382;2023-08-24T04:18:11;18.70;99.90
30037;DHT22;36325;51.512;-0.382;2023-08-24T04:20:38;18.70;99.90
30037;DHT22;36325;51.512;-0.382;2023-08-24T04:23:06;18.80;99.90
30037;DHT22;36325;51.512;-0.382;2023-08-24T04:25:33;18.80;99.90
30037;DHT22;36325;51.512;-0.382;2023-08-24T04:28:01;18.80;99.90
30037;DHT22;36325;51.512;-0.382;2023-08-24T04:30:28;18.80;99.90
30037;DHT22;36325;51.512;-0.382;2023-08-24T04:32:55;18.90;99.90
30037;DHT22;36325;51.512;-0.382;2023-08-24T04:35:25;18.90;99.90
30037;DHT22;36325;51.512;-0.382;2023-08-24T04:37:53;18.90;99.90
30037;DHT22;36325;51.512;-0.382;2023-08-24T04:40:22;18.90;99.90
30037;DHT22;36325;51.512;-0.382;2023-08-24T04:42:49;18.90;99.90
30037;DHT22;36325;51.512;-0.382;2023-08-24T04:45:17;18.90;99.90
30037;DHT22;36325;51.512;-0.382;2023-08-24T04:47:46;19.00;99.90
30037;DHT22;36325;51.512;-0.382;2023-08-24T04:50:13;18.90;99.90
30037;DHT22;36325;51.512;-0.382;2023-08-24T04:52:40;18.90;99.90
30037;DHT22;36325;51.512;-0.382;2023-08-24T04:55:08;19.00;99.90
30037;DHT22;36325;51.512;-0.382;2023-08-24T04:57:36;19.00;99.90
30037;DHT22;36325;51.512;-0.382;2023-08-24T05:00:03;19.00;99.90
30037;DHT22;36325;51.512;-0.382;2023-08-24T05:02:35;15.80;99.90
30037;DHT22;36325;51.512;-0.382;2023-08-24T05:05:02;18.90;99.90
30037;DHT22;36325;51.512;-0.382;2023-08-24T05:07:30;18.90;99.90
30037;DHT22;36325;51.512;-0.382;2023-08-24T05:09:58;18.90;99.90
30037;DHT22;36325;51.512;-0.382;2023-08-24T05:12:26;18.90;99.90
30037;DHT22;36325;51.512;-0.382;2023-08-24T05:17:22;18.80;99.90
30037;DHT22;36325;51.512;-0.382;2023-08-24T05:19:52;18.90;99.90
30037;DHT22;36325;51.512;-0.382;2023-08-24T05:22:20;18.90;99.90
30037;DHT22;36325;51.512;-0.382;2023-08-24T05:24:48;18.90;99.90
30037;DHT22;36325;51.512;-0.382;2023-08-24T05:27:16;19.00;99.90
30037;DHT22;36325;51.512;-0.382;2023-08-24T05:29:43;19.00;99.90
30037;DHT22;36325;51.512;-0.382;2023-08-24T05:32:11;18.90;99.90
30037;DHT22;36325;51.512;-0.382;2023-08-24T05:34:38;18.90;99.90
30037;DHT22;36325;51.512;-0.382;2023-08-24T05:37:06;18.10;99.90
30037;DHT22;36325;51.512;-0.382;2023-08-24T05:39:34;18.80;99.90
30037;DHT22;36325;51.512;-0.382;2023-08-24T05:42:01;18.90;99.90
30037;DHT22;36325;51.512;-0.382;2023-08-24T05:44:29;18.90;99.90
30037;DHT22;36325;51.512;-0.382;2023-08-24T05:46:57;18.90;99.90
30037;DHT22;36325;51.512;-0.382;2023-08-24T05:49:25;19.00;99.90
30037;DHT22;36325;51.512;-0.382;2023-08-24T05:51:52;19.00;99.90
30037;DHT22;36325;51.512;-0.382;2023-08-24T05:54:20;19.10;99.90
30037;DHT22;36325;51.512;-0.382;2023-08-24T05:56:48;19.10;99.90
30037;DHT22;36325;51.512;-0.382;2023-08-24T05:59:15;17.20;99.90
30037;DHT22;36325;51.512;-0.382;2023-08-24T06:01:43;19.10;99.90
30037;DHT22;36325;51.512;-0.382;2023-08-24T06:04:11;19.10;99.90
30037;DHT22;36325;51.512;-0.382;2023-08-24T06:06:38;19.10;99.90
30037;DHT22;36325;51.512;-0.382;2023-08-24T06:09:06;19.10;99.90
30037;DHT22;36325;51.512;-0.382;2023-08-24T06:14:04;19.10;99.90
30037;DHT22;36325;51.512;-0.382;2023-08-24T06:16:32;19.10;99.90
30037;DHT22;36325;51.512;-0.382;2023-08-24T06:19:07;19.10;99.90
30037;DHT22;36325;51.512;-0.382;2023-08-24T06:21:36;19.30;99.90
30037;DHT22;36325;51.512;-0.382;2023-08-24T06:26:33;19.10;99.90
30037;DHT22;36325;51.512;-0.382;2023-08-24T06:29:00;19.10;99.90
30037;DHT22;36325;51.512;-0.382;2023-08-24T06:31:28;19.10;99.90
30037;DHT22;36325;51.512;-0.382;2023-08-24T06:33:57;19.10;99.90
30037;DHT22;36325;51.512;-0.382;2023-08-24T06:36:24;19.10;99.90
30037;DHT22;36325;51.512;-0.382;2023-08-24T06:38:52;19.10;99.90
30037;DHT22;36325;51.512;-0.382;2023-08-24T06:41:19;19.20;99.90
30037;DHT22;36325;51.512;-0.382;2023-08-24T06:43:47;19.30;99.90
30037;DHT22;36325;51.512;-0.382;2023-08-24T06:46:14;19.30;99.90
30037;DHT22;36325;51.512;-0.382;2023-08-24T06:48:41;19.30;99.90
30037;DHT22;36325;51.512;-0.382;2023-08-24T06:51:10;19.40;99.90
30037;DHT22;36325;51.512;-0.382;2023-08-24T06:53:38;19.40;99.90
30037;DHT22;36325;51.512;-0.382;2023-08-24T06:56:05;19.50;99.90
30037;DHT22;36325;51.512;-0.382;2023-08-24T06:58:33;19.50;99.90
30037;DHT22;36325;51.512;-0.382;2023-08-24T07:01:00;19.50;99.90
30037;DHT22;36325;51.512;-0.382;2023-08-24T07:03:33;19.60;99.90
30037;DHT22;36325;51.512;-0.382;2023-08-24T07:06:00;19.70;99.90
30037;DHT22;36325;51.512;-0.382;2023-08-24T07:08:28;19.80;99.90
30037;DHT22;36325;51.512;-0.382;2023-08-24T07:10:55;19.70;99.90
30037;DHT22;36325;51.512;-0.382;2023-08-24T07:13:24;19.70;99.90
30037;DHT22;36325;51.512;-0.382;2023-08-24T07:15:51;19.70;99.90
30037;DHT22;36325;51.512;-0.382;2023-08-24T07:18:18;19.70;99.90
30037;DHT22;36325;51.512;-0.382;2023-08-24T07:20:48;19.70;99.90
30037;DHT22;36325;51.512;-0.382;2023-08-24T07:23:15;19.70;99.90
30037;DHT22;36325;51.512;-0.382;2023-08-24T07:25:43;19.70;99.90
30037;DHT22;36325;51.512;-0.382;2023-08-24T07:28:11;19.80;99.90
30037;DHT22;36325;51.512;-0.382;2023-08-24T07:30:41;19.80;99.90
30037;DHT22;36325;51.512;-0.382;2023-08-24T07:33:11;19.70;99.90
30037;DHT22;36325;51.512;-0.382;2023-08-24T07:35:39;19.70;99.90
30037;DHT22;36325;51.512;-0.382;2023-08-24T07:38:06;19.70;99.90
30037;DHT22;36325;51.512;-0.382;2023-08-24T07:40:35;19.70;99.90
30037;DHT22;36325;51.512;-0.382;2023-08-24T07:43:03;19.70;99.90
30037;DHT22;36325;51.512;-0.382;2023-08-24T07:45:31;19.70;99.90
30037;DHT22;36325;51.512;-0.382;2023-08-24T07:47:58;19.70;99.90
30037;DHT22;36325;51.512;-0.382;2023-08-24T07:50:26;19.70;99.90
30037;DHT22;36325;51.512;-0.382;2023-08-24T07:52:53;19.70;99.90
30037;DHT22;36325;51.512;-0.382;2023-08-24T07:55:23;19.70;99.90
30037;DHT22;36325;51.512;-0.382;2023-08-24T07:57:52;19.70;99.90
30037;DHT22;36325;51.512;-0.382;2023-08-24T08:00:20;19.80;99.90
30037;DHT22;36325;51.512;-0.382;2023-08-24T08:02:51;19.80;99.90
30037;DHT22;36325;51.512;-0.382;2023-08-24T08:05:19;19.80;99.90
30037;DHT22;36325;51.512;-0.382;2023-08-24T08:07:47;19.90;99.90
30037;DHT22;36325;51.512;-0.382;2023-08-24T08:10:15;19.90;99.90
30037;DHT22;36325;51.512;-0.382;2023-08-24T08:12:47;19.90;99.90
30037;DHT22;36325;51.512;-0.382;2023-08-24T08:15:14;20.00;99.90
30037;DHT22;36325;51.512;-0.382;2023-08-24T08:17:42;20.00;99.90
30037;DHT22;36325;51.512;-0.382;2023-08-24T08:20:10;20.00;99.90
30037;DHT22;36325;51.512;-0.382;2023-08-24T08:22:39;19.90;99.90
30037;DHT22;36325;51.512;-0.382;2023-08-24T08:25:06;19.90;99.90
30037;DHT22;36325;51.512;-0.382;2023-08-24T08:27:35;19.80;99.90
30037;DHT22;36325;51.512;-0.382;2023-08-24T08:30:03;19.80;99.90
30037;DHT22;36325;51.512;-0.382;2023-08-24T08:32:32;19.80;99.90
30037;DHT22;36325;51.512;-0.382;2023-08-24T08:34:59;19.90;99.90
30037;DHT22;36325;51.512;-0.382;2023-08-24T08:37:30;20.00;99.90
30037;DHT22;36325;51.512;-0.382;2023-08-24T08:39:58;20.00;99.90
30037;DHT22;36325;51.512;-0.382;2023-08-24T08:42:26;20.10;99.90
30037;DHT22;36325;51.512;-0.382;2023-08-24T08:44:56;20.20;99.90
30037;DHT22;36325;51.512;-0.382;2023-08-24T08:47:24;20.20;99.90
30037;DHT22;36325;51.512;-0.382;2023-08-24T08:49:52;20.30;99.90
30037;DHT22;36325;51.512;-0.382;2023-08-24T08:52:22;20.20;99.90
30037;DHT22;36325;51.512;-0.382;2023-08-24T08:54:49;20.20;99.90
30037;DHT22;36325;51.512;-0.382;2023-08-24T08:57:17;20.20;99.90
30037;DHT22;36325;51.512;-0.382;2023-08-24T08:59:46;20.20;99.90
30037;DHT22;36325;51.512;-0.382;2023-08-24T09:02:16;20.20;99.90
30037;DHT22;36325;51.512;-0.382;2023-08-24T09:04:46;20.20;99.90
30037;DHT22;36325;51.512;-0.382;2023-08-24T09:07:15;20.30;99.90
30037;DHT22;36325;51.512;-0.382;2023-08-24T09:09:43;20.30;99.90
30037;DHT22;36325;51.512;-0.382;2023-08-24T09:12:10;20.40;99.90
30037;DHT22;36325;51.512;-0.382;2023-08-24T09:14:38;20.50;99.90
30037;DHT22;36325;51.512;-0.382;2023-08-24T09:17:06;20.50;99.90
30037;DHT22;36325;51.512;-0.382;2023-08-24T09:19:34;20.60;99.90
30037;DHT22;36325;51.512;-0.382;2023-08-24T09:22:03;20.70;99.90
30037;DHT22;36325;51.512;-0.382;2023-08-24T09:24:35;20.80;99.90
30037;DHT22;36325;51.512;-0.382;2023-08-24T09:27:17;21.10;99.90
30037;DHT22;36325;51.512;-0.382;2023-08-24T09:29:52;21.30;99.90
30037;DHT22;36325;51.512;-0.382;2023-08-24T09:32:27;21.60;99.90
30037;DHT22;36325;51.512;-0.382;2023-08-24T09:34:56;21.80;99.90
30037;DHT22;36325;51.512;-0.382;2023-08-24T09:37:23;22.30;99.90
30037;DHT22;36325;51.512;-0.382;2023-08-24T09:40:01;22.30;99.90
30037;DHT22;36325;51.512;-0.382;2023-08-24T09:42:33;23.00;99.90
30037;DHT22;36325;51.512;-0.382;2023-08-24T09:45:04;23.90;99.90
30037;DHT22;36325;51.512;-0.382;2023-08-24T09:47:37;24.20;99.90
30037;DHT22;36325;51.512;-0.382;2023-08-24T09:50:05;24.50;99.90
30037;DHT22;36325;51.512;-0.382;2023-08-24T09:52:33;24.60;99.90
30037;DHT22;36325;51.512;-0.382;2023-08-24T09:55:04;25.00;99.90
30037;DHT22;36325;51.512;-0.382;2023-08-24T09:57:37;25.00;99.90
30037;DHT22;36325;51.512;-0.382;2023-08-24T10:00:09;25.10;99.90
30037;DHT22;36325;51.512;-0.382;2023-08-24T10:02:49;25.20;99.90
30037;DHT22;36325;51.512;-0.382;2023-08-24T10:05:20;25.80;99.90
30037;DHT22;36325;51.512;-0.382;2023-08-24T10:07:53;25.80;99.90
30037;DHT22;36325;51.512;-0.382;2023-08-24T10:10:23;26.40;99.90
30037;DHT22;36325;51.512;-0.382;2023-08-24T10:13:11;26.70;99.90
30037;DHT22;36325;51.512;-0.382;2023-08-24T10:15:42;26.80;99.90
30037;DHT22;36325;51.512;-0.382;2023-08-24T10:18:15;26.90;99.90
30037;DHT22;36325;51.512;-0.382;2023-08-24T10:20:44;27.40;99.90
30037;DHT22;36325;51.512;-0.382;2023-08-24T10:23:15;27.90;99.90
30037;DHT22;36325;51.512;-0.382;2023-08-24T10:25:44;28.30;99.90
30037;DHT22;36325;51.512;-0.382;2023-08-24T10:28:14;28.00;99.90
30037;DHT22;36325;51.512;-0.382;2023-08-24T10:30:46;28.00;99.90
30037;DHT22;36325;51.512;-0.382;2023-08-24T10:33:15;27.70;99.90
30037;DHT22;36325;51.512;-0.382;2023-08-24T10:35:43;27.60;99.90
30037;DHT22;36325;51.512;-0.382;2023-08-24T10:38:25;27.70;99.90
30037;DHT22;36325;51.512;-0.382;2023-08-24T10:41:11;28.20;99.90
30037;DHT22;36325;51.512;-0.382;2023-08-24T10:43:48;29.00;99.90
30037;DHT22;36325;51.512;-0.382;2023-08-24T10:46:19;29.00;99.90
30037;DHT22;36325;51.512;-0.382;2023-08-24T10:51:23;29.90;99.90
30037;DHT22;36325;51.512;-0.382;2023-08-24T10:53:57;30.60;99.90
30037;DHT22;36325;51.512;-0.382;2023-08-24T10:59:19;30.60;99.90
30037;DHT22;36325;51.512;-0.382;2023-08-24T11:04:21;31.60;99.90
30037;DHT22;36325;51.512;-0.382;2023-08-24T11:06:58;31.80;99.90
30037;DHT22;36325;51.512;-0.382;2023-08-24T11:09:47;31.00;99.90
30037;DHT22;36325;51.512;-0.382;2023-08-24T11:12:15;29.80;99.90
30037;DHT22;36325;51.512;-0.382;2023-08-24T11:14:51;29.70;99.90
30037;DHT22;36325;51.512;-0.382;2023-08-24T11:17:21;29.20;99.90
30037;DHT22;36325;51.512;-0.382;2023-08-24T11:19:53;28.80;99.90
30037;DHT22;36325;51.512;-0.382;2023-08-24T11:22:21;29.00;99.90
30037;DHT22;36325;51.512;-0.382;2023-08-24T11:24:49;29.30;99.90
30037;DHT22;36325;51.512;-0.382;2023-08-24T11:27:16;29.20;99.90
30037;DHT22;36325;51.512;-0.382;2023-08-24T11:29:44;29.20;99.90
30037;DHT22;36325;51.512;-0.382;2023-08-24T11:32:11;29.00;99.90
30037;DHT22;36325;51.512;-0.382;2023-08-24T11:34:38;28.80;99.90
30037;DHT22;36325;51.512;-0.382;2023-08-24T11:37:06;28.70;99.90
30037;DHT22;36325;51.512;-0.382;2023-08-24T11:39:45;29.10;99.90
30037;DHT22;36325;51.512;-0.382;2023-08-24T11:42:18;29.20;99.90
30037;DHT22;36325;51.512;-0.382;2023-08-24T11:44:47;29.60;99.90
30037;DHT22;36325;51.512;-0.382;2023-08-24T11:47:16;29.70;99.90
30037;DHT22;36325;51.512;-0.382;2023-08-24T11:49:46;29.60;99.90
30037;DHT22;36325;51.512;-0.382;2023-08-24T11:52:14;29.20;99.90
30037;DHT22;36325;51.512;-0.382;2023-08-24T11:54:43;29.10;99.90
30037;DHT22;36325;51.512;-0.382;2023-08-24T11:57:12;29.20;99.90
30037;DHT22;36325;51.512;-0.382;2023-08-24T11:59:41;29.00;99.90
30037;DHT22;36325;51.512;-0.382;2023-08-24T12:02:12;28.20;99.90
30037;DHT22;36325;51.512;-0.382;2023-08-24T12:04:44;28.10;99.90
30037;DHT22;36325;51.512;-0.382;2023-08-24T12:07:14;27.80;99.90
30037;DHT22;36325;51.512;-0.382;2023-08-24T12:09:46;27.50;99.90
30037;DHT22;36325;51.512;-0.382;2023-08-24T12:12:14;27.30;99.90
30037;DHT22;36325;51.512;-0.382;2023-08-24T12:14:45;27.10;99.90
30037;DHT22;36325;51.512;-0.382;2023-08-24T12:17:15;27.50;99.90
30037;DHT22;36325;51.512;-0.382;2023-08-24T12:19:45;27.60;99.90
30037;DHT22;36325;51.512;-0.382;2023-08-24T12:22:21;27.80;99.90
30037;DHT22;36325;51.512;-0.382;2023-08-24T12:24:49;27.70;99.90
30037;DHT22;36325;51.512;-0.382;2023-08-24T12:27:20;27.80;99.90
30037;DHT22;36325;51.512;-0.382;2023-08-24T12:29:48;28.30;99.90
30037;DHT22;36325;51.512;-0.382;2023-08-24T12:32:17;28.10;99.90
30037;DHT22;36325;51.512;-0.382;2023-08-24T12:34:49;28.10;99.90
30037;DHT22;36325;51.512;-0.382;2023-08-24T12:37:19;27.80;99.90
30037;DHT22;36325;51.512;-0.382;2023-08-24T12:39:46;27.70;99.90
30037;DHT22;36325;51.512;-0.382;2023-08-24T12:42:17;27.50;99.90
30037;DHT22;36325;51.512;-0.382;2023-08-24T12:44:44;27.20;99.90
30037;DHT22;36325;51.512;-0.382;2023-08-24T12:47:12;27.10;99.90
30037;DHT22;36325;51.512;-0.382;2023-08-24T12:49:43;27.00;99.90
30037;DHT22;36325;51.512;-0.382;2023-08-24T12:52:10;26.70;99.90
30037;DHT22;36325;51.512;-0.382;2023-08-24T12:54:38;26.60;99.90
30037;DHT22;36325;51.512;-0.382;2023-08-24T12:57:06;26.50;99.90
30037;DHT22;36325;51.512;-0.382;2023-08-24T12:59:33;26.50;99.90
30037;DHT22;36325;51.512;-0.382;2023-08-24T13:02:01;26.70;99.90
30037;DHT22;36325;51.512;-0.382;2023-08-24T13:04:28;26.90;99.90
30037;DHT22;36325;51.512;-0.382;2023-08-24T13:06:58;26.90;99.90
30037;DHT22;36325;51.512;-0.382;2023-08-24T13:09:27;26.90;99.90
30037;DHT22;36325;51.512;-0.382;2023-08-24T13:11:54;26.70;99.90
30037;DHT22;36325;51.512;-0.382;2023-08-24T13:14:21;26.60;99.90
30037;DHT22;36325;51.512;-0.382;2023-08-24T13:16:49;26.50;99.90
30037;DHT22;36325;51.512;-0.382;2023-08-24T13:19:16;26.60;99.90
30037;DHT22;36325;51.512;-0.382;2023-08-24T13:21:44;26.70;99.90
30037;DHT22;36325;51.512;-0.382;2023-08-24T13:24:12;26.90;99.90
30037;DHT22;36325;51.512;-0.382;2023-08-24T13:26:40;27.10;99.90
30037;DHT22;36325;51.512;-0.382;2023-08-24T13:29:07;27.00;99.90
30037;DHT22;36325;51.512;-0.382;2023-08-24T13:31:35;26.80;99.90
30037;DHT22;36325;51.512;-0.382;2023-08-24T13:34:03;26.50;99.90
30037;DHT22;36325;51.512;-0.382;2023-08-24T13:36:34;26.20;99.90
30037;DHT22;36325;51.512;-0.382;2023-08-24T13:39:02;26.10;99.90
30037;DHT22;36325;51.512;-0.382;2023-08-24T13:41:29;25.90;99.90
30037;DHT22;36325;51.512;-0.382;2023-08-24T13:43:57;25.80;99.90
30037;DHT22;36325;51.512;-0.382;2023-08-24T13:46:24;25.70;99.90
30037;DHT22;36325;51.512;-0.382;2023-08-24T13:48:51;25.60;99.90
30037;DHT22;36325;51.512;-0.382;2023-08-24T13:51:19;25.50;99.90
30037;DHT22;36325;51.512;-0.382;2023-08-24T13:53:47;25.40;99.90
30037;DHT22;36325;51.512;-0.382;2023-08-24T13:56:14;25.60;99.90
30037;DHT22;36325;51.512;-0.382;2023-08-24T13:58:43;25.60;99.90
30037;DHT22;36325;51.512;-0.382;2023-08-24T14:01:11;26.00;99.90
30037;DHT22;36325;51.512;-0.382;2023-08-24T14:03:40;26.60;99.90
30037;DHT22;36325;51.512;-0.382;2023-08-24T14:06:10;26.80;99.90
30037;DHT22;36325;51.512;-0.382;2023-08-24T14:08:38;26.40;99.90
30037;DHT22;36325;51.512;-0.382;2023-08-24T14:11:06;27.70;99.90
30037;DHT22;36325;51.512;-0.382;2023-08-24T14:13:33;28.00;99.90
30037;DHT22;36325;51.512;-0.382;2023-08-24T14:16:01;27.80;99.90
30037;DHT22;36325;51.512;-0.382;2023-08-24T14:18:28;27.50;99.90
30037;DHT22;36325;51.512;-0.382;2023-08-24T14:20:56;27.10;99.90
30037;DHT22;36325;51.512;-0.382;2023-08-24T14:23:24;26.70;99.90
30037;DHT22;36325;51.512;-0.382;2023-08-24T14:25:51;26.40;99.90
30037;DHT22;36325;51.512;-0.382;2023-08-24T14:28:20;26.10;99.90
30037;DHT22;36325;51.512;-0.382;2023-08-24T14:30:49;25.80;99.90
30037;DHT22;36325;51.512;-0.382;2023-08-24T14:33:17;25.60;99.90
30037;DHT22;36325;51.512;-0.382;2023-08-24T14:35:52;25.50;99.90
30037;DHT22;36325;51.512;-0.382;2023-08-24T14:38:19;25.50;99.90
30037;DHT22;36325;51.512;-0.382;2023-08-24T14:40:46;25.60;99.90
30037;DHT22;36325;51.512;-0.382;2023-08-24T14:43:13;25.90;99.90
30037;DHT22;36325;51.512;-0.382;2023-08-24T14:45:42;26.30;99.90
30037;DHT22;36325;51.512;-0.382;2023-08-24T14:48:10;26.90;99.90
30037;DHT22;36325;51.512;-0.382;2023-08-24T14:50:40;27.40;99.90
30037;DHT22;36325;51.512;-0.382;2023-08-24T14:53:07;27.70;99.90
30037;DHT22;36325;51.512;-0.382;2023-08-24T14:55:38;28.00;99.90
30037;DHT22;36325;51.512;-0.382;2023-08-24T15:00:35;28.60;99.90
30037;DHT22;36325;51.512;-0.382;2023-08-24T15:03:03;28.70;99.90
30037;DHT22;36325;51.512;-0.382;2023-08-24T15:05:30;28.40;99.90
30037;DHT22;36325;51.512;-0.382;2023-08-24T15:07:58;28.10;99.90
30037;DHT22;36325;51.512;-0.382;2023-08-24T15:10:25;27.80;99.90
30037;DHT22;36325;51.512;-0.382;2023-08-24T15:12:53;27.40;99.90
30037;DHT22;36325;51.512;-0.382;2023-08-24T15:15:21;27.20;99.90
30037;DHT22;36325;51.512;-0.382;2023-08-24T15:17:48;26.80;99.90
30037;DHT22;36325;51.512;-0.382;2023-08-24T15:20:17;26.50;99.90
30037;DHT22;36325;51.512;-0.382;2023-08-24T15:22:45;26.30;99.90
30037;DHT22;36325;51.512;-0.382;2023-08-24T15:25:12;26.20;99.90
30037;DHT22;36325;51.512;-0.382;2023-08-24T15:27:40;26.10;99.90
30037;DHT22;36325;51.512;-0.382;2023-08-24T15:30:08;25.90;99.90
30037;DHT22;36325;51.512;-0.382;2023-08-24T15:32:36;25.80;99.90
30037;DHT22;36325;51.512;-0.382;2023-08-24T15:35:04;25.60;99.90
30037;DHT22;36325;51.512;-0.382;2023-08-24T15:37:34;25.50;99.90
30037;DHT22;36325;51.512;-0.382;2023-08-24T15:40:03;25.50;99.90
30037;DHT22;36325;51.512;-0.382;2023-08-24T15:45:01;26.40;99.90
30037;DHT22;36325;51.512;-0.382;2023-08-24T15:47:29;26.50;99.90
30037;DHT22;36325;51.512;-0.382;2023-08-24T15:49:56;26.90;99.90
30037;DHT22;36325;51.512;-0.382;2023-08-24T15:52:25;27.20;99.90
30037;DHT22;36325;51.512;-0.382;2023-08-24T15:54:53;27.40;99.90
30037;DHT22;36325;51.512;-0.382;2023-08-24T15:57:21;27.90;99.90